createdAt,value
2023-05-16T00:03:42.805Z,100.00
2023-05-16T00:24:07.275Z,100.00
2023-05-16T00:34:09.665Z,100.00
2023-05-16T00:44:12.340Z,100.00
2023-05-16T00:54:15.246Z,100.00
2023-05-16T01:04:18.068Z,100.00
2023-05-16T01:14:29.216Z,100.00
2023-05-16T01:25:19.070Z,100.00
2023-05-16T01:35:21.709Z,100.00
2023-05-16T01:45:30.228Z,100.00
2023-05-16T01:55:49.622Z,100.00
2023-05-16T02:05:52.656Z,100.00
2023-05-16T02:15:54.816Z,100.00
2023-05-16T02:25:59.491Z,100.00
2023-05-16T02:36:08.946Z,100.00
2023-05-16T02:46:28.726Z,100.00
2023-05-16T02:56:36.259Z,100.00
2023-05-16T03:06:38.422Z,100.00
2023-05-16T03:16:44.132Z,100.00
2023-05-16T03:26:46.398Z,100.00
2023-05-16T03:36:51.185Z,100.00
2023-05-16T03:46:56.420Z,100.00
2023-05-16T03:57:01.734Z,100.00
2023-05-16T04:07:04.082Z,100.00
2023-05-16T04:17:08.662Z,100.00
2023-05-16T04:27:11.058Z,100.00
2023-05-16T04:37:13.418Z,100.00
2023-05-16T04:47:17.912Z,100.00
2023-05-16T04:57:24.975Z,81.71
2023-05-16T05:07:29.535Z,73.24
2023-05-16T05:17:31.733Z,71.00
2023-05-16T05:27:36.491Z,68.31
2023-05-16T05:37:46.261Z,69.92
2023-05-16T05:47:51.364Z,71.33
2023-05-16T05:57:53.666Z,77.10
2023-05-16T06:07:58.134Z,83.46
2023-05-16T06:18:01.140Z,86.18
2023-05-16T06:28:05.498Z,86.49
2023-05-16T06:38:07.577Z,88.13
2023-05-16T06:48:09.765Z,92.62
2023-05-16T06:58:14.697Z,90.92
2023-05-16T07:08:19.480Z,91.31
2023-05-16T07:18:21.630Z,91.44
2023-05-16T07:28:28.796Z,89.97
2023-05-16T07:38:31.144Z,80.63
2023-05-16T07:48:42.942Z,68.62
2023-05-16T07:58:51.179Z,70.84
2023-05-16T08:08:53.513Z,74.83
2023-05-16T08:18:55.877Z,77.82
2023-05-16T08:28:58.151Z,80.26
2023-05-16T08:39:00.498Z,79.61
2023-05-16T08:49:05.112Z,79.02
2023-05-16T08:59:13.518Z,78.33
2023-05-16T09:09:15.891Z,76.03
2023-05-16T09:19:18.200Z,74.55
2023-05-16T09:29:23.069Z,74.24
2023-05-16T09:39:34.973Z,69.57
2023-05-16T09:49:40.133Z,68.38
2023-05-16T09:59:43.013Z,69.98
2023-05-16T10:09:53.693Z,70.82
2023-05-16T10:19:58.887Z,71.05
2023-05-16T10:30:03.884Z,71.31
2023-05-16T10:50:34.197Z,72.49
2023-05-16T11:00:36.332Z,71.04
2023-05-16T11:10:38.573Z,67.99
2023-05-16T11:20:41.562Z,67.54
2023-05-16T11:30:57.928Z,67.61
2023-05-16T11:41:07.326Z,69.87
2023-05-16T11:51:12.118Z,67.97
2023-05-16T12:01:14.613Z,67.16
2023-05-16T12:11:19.532Z,64.23
2023-05-16T12:21:23.957Z,63.22
2023-05-16T12:31:31.557Z,63.29
2023-05-16T12:41:42.211Z,63.30
2023-05-16T12:51:52.807Z,66.84
2023-05-16T13:01:57.517Z,67.34
2023-05-16T13:12:02.311Z,66.78
2023-05-16T13:22:05.908Z,66.47
2023-05-16T13:32:13.310Z,65.56
2023-05-16T13:42:18.033Z,64.92
2023-05-16T13:52:24.054Z,63.50
2023-05-16T14:02:29.046Z,62.53
2023-05-16T14:12:36.605Z,62.74
2023-05-16T14:22:41.320Z,61.69
2023-05-16T14:32:48.406Z,61.67
2023-05-16T14:42:55.309Z,61.83
2023-05-16T14:53:00.320Z,61.73
2023-05-16T15:03:02.917Z,61.98
2023-05-16T15:13:07.458Z,61.60
2023-05-16T15:23:10.725Z,61.17
2023-05-16T15:33:13.962Z,63.64
2023-05-16T15:43:17.484Z,63.90
2023-05-16T15:53:20.067Z,63.84
2023-05-16T16:03:22.778Z,63.05
2023-05-16T16:13:25.264Z,61.72
2023-05-16T16:23:27.436Z,60.86
2023-05-16T16:33:32.358Z,61.55
2023-05-16T16:43:37.178Z,62.03
2023-05-16T16:53:42.088Z,61.21
2023-05-16T17:03:46.703Z,62.45
2023-05-16T17:13:52.280Z,61.52
2023-05-16T17:23:55.429Z,61.86
2023-05-16T17:33:57.708Z,63.51
2023-05-16T17:44:05.397Z,65.48
2023-05-16T17:54:09.649Z,66.88
2023-05-16T18:04:18.619Z,69.13
2023-05-16T18:14:23.348Z,70.54
2023-05-16T18:24:25.549Z,70.84
2023-05-16T18:34:30.389Z,71.63
2023-05-16T18:44:32.931Z,72.48
2023-05-16T18:54:38.232Z,72.91
2023-05-16T19:04:40.867Z,73.19
2023-05-16T19:14:43.148Z,74.15
2023-05-16T19:24:47.860Z,74.27
2023-05-16T19:34:53.105Z,75.07
2023-05-16T19:44:58.088Z,75.70
2023-05-16T19:55:00.398Z,75.90
2023-05-16T20:05:02.710Z,75.88
2023-05-16T20:15:08.572Z,76.12
2023-05-16T20:25:13.360Z,77.58
2023-05-16T20:35:18.460Z,78.49
2023-05-16T20:45:20.890Z,79.09
2023-05-16T20:55:26.339Z,80.19
2023-05-16T21:05:28.943Z,79.98
2023-05-16T21:15:31.771Z,80.64
2023-05-16T21:25:34.256Z,80.13
2023-05-16T21:35:43.507Z,80.72
2023-05-16T21:45:50.498Z,80.89
2023-05-16T21:55:54.888Z,82.45
2023-05-16T22:05:59.579Z,82.43
2023-05-16T22:16:07.777Z,83.22
2023-05-16T22:26:12.195Z,83.53
2023-05-16T22:36:14.308Z,84.54
2023-05-16T22:46:18.983Z,86.10
2023-05-16T22:56:23.432Z,86.63
2023-05-16T23:06:25.621Z,88.71
2023-05-16T23:16:27.924Z,90.29
2023-05-16T23:26:32.097Z,97.60
2023-05-16T23:36:36.513Z,100.00
2023-05-16T23:46:41.446Z,100.00
2023-05-16T23:56:48.555Z,100.00
